sensor_id;sensor_type;location;lat;lon;timestamp;pressure;altitude;pressure_sealevel;temperature;humidity
36454;BME280;22478;51.740;-1.314;2022-12-29T00:01:40;98050.88;;;3.44;100.00
36454;BME280;22478;51.740;-1.314;2022-12-29T00:04:09;98048.15;;;1.80;100.00
36454;BME280;22478;51.740;-1.314;2022-12-29T00:06:38;98052.51;;;0.14;100.00
36454;BME280;22478;51.740;-1.314;2022-12-29T00:09:05;98051.95;;;1.11;100.00
36454;BME280;22478;51.740;-1.314;2022-12-29T00:11:32;98044.95;;;0.78;100.00
36454;BME280;22478;51.740;-1.314;2022-12-29T00:13:59;98038.13;;;2.18;100.00
36454;BME280;22478;51.740;-1.314;2022-12-29T00:16:27;98026.61;;;0.69;100.00
36454;BME280;22478;51.740;-1.314;2022-12-29T00:18:54;98032.05;;;1.40;100.00
36454;BME280;22478;51.740;-1.314;2022-12-29T00:21:22;98027.80;;;0.19;100.00
36454;BME280;22478;51.740;-1.314;2022-12-29T00:23:50;98019.71;;;0.64;100.00
36454;BME280;22478;51.740;-1.314;2022-12-29T00:26:17;98029.26;;;1.20;100.00
36454;BME280;22478;51.740;-1.314;2022-12-29T00:28:44;98030.59;;;0.75;100.00
36454;BME280;22478;51.740;-1.314;2022-12-29T00:31:12;98040.69;;;0.30;100.00
36454;BME280;22478;51.740;-1.314;2022-12-29T00:33:39;98026.11;;;2.23;100.00
36454;BME280;22478;51.740;-1.314;2022-12-29T00:36:09;98030.84;;;1.07;100.00
36454;BME280;22478;51.740;-1.314;2022-12-29T00:38:41;98028.50;;;0.94;100.00
36454;BME280;22478;51.740;-1.314;2022-12-29T00:41:10;98023.40;;;2.22;100.00
36454;BME280;22478;51.740;-1.314;2022-12-29T00:43:37;98031.55;;;1.74;100.00
36454;BME280;22478;51.740;-1.314;2022-12-29T00:46:04;98034.29;;;0.95;100.00
36454;BME280;22478;51.740;-1.314;2022-12-29T00:48:31;98020.24;;;1.14;100.00
36454;BME280;22478;51.740;-1.314;2022-12-29T00:50:58;98020.81;;;1.73;100.00
36454;BME280;22478;51.740;-1.314;2022-12-29T00:53:26;98025.18;;;-0.22;100.00
36454;BME280;22478;51.740;-1.314;2022-12-29T00:55:53;98033.74;;;-0.74;100.00
36454;BME280;22478;51.740;-1.314;2022-12-29T00:58:20;98017.71;;;1.32;100.00
36454;BME280;22478;51.740;-1.314;2022-12-29T01:00:47;98012.39;;;1.72;100.00
36454;BME280;22478;51.740;-1.314;2022-12-29T01:03:14;98007.83;;;1.84;100.00
36454;BME280;22478;51.740;-1.314;2022-12-29T01:05:41;98006.90;;;1.28;100.00
36454;BME280;22478;51.740;-1.314;2022-12-29T01:08:08;97992.23;;;1.79;100.00
36454;BME280;22478;51.740;-1.314;2022-12-29T01:10:36;97984.14;;;2.02;100.00
36454;BME280;22478;51.740;-1.314;2022-12-29T01:13:04;97982.04;;;1.26;100.00
36454;BME280;22478;51.740;-1.314;2022-12-29T01:15:31;97992.50;;;1.37;100.00
36454;BME280;22478;51.740;-1.314;2022-12-29T01:17:58;97999.50;;;0.84;100.00
36454;BME280;22478;51.740;-1.314;2022-12-29T01:20:25;97999.37;;;-0.37;100.00
36454;BME280;22478;51.740;-1.314;2022-12-29T01:22:53;97994.69;;;0.80;100.00
36454;BME280;22478;51.740;-1.314;2022-12-29T01:25:20;97993.54;;;1.14;100.00
36454;BME280;22478;51.740;-1.314;2022-12-29T01:27:47;97990.47;;;1.06;100.00
36454;BME280;22478;51.740;-1.314;2022-12-29T01:30:14;97990.82;;;1.02;100.00
36454;BME280;22478;51.740;-1.314;2022-12-29T01:32:41;97985.56;;;1.07;100.00
36454;BME280;22478;51.740;-1.314;2022-12-29T01:35:08;97987.57;;;-0.44;100.00
36454;BME280;22478;51.740;-1.314;2022-12-29T01:37:35;97989.76;;;-0.28;100.00
36454;BME280;22478;51.740;-1.314;2022-12-29T01:40:03;97991.96;;;0.70;100.00
36454;BME280;22478;51.740;-1.314;2022-12-29T01:42:30;97985.67;;;1.05;100.00
36454;BME280;22478;51.740;-1.314;2022-12-29T01:44:58;97979.22;;;1.19;100.00
36454;BME280;22478;51.740;-1.314;2022-12-29T01:47:30;97983.72;;;-0.32;100.00
36454;BME280;22478;51.740;-1.314;2022-12-29T01:50:03;97986.38;;;0.54;100.00
36454;BME280;22478;51.740;-1.314;2022-12-29T01:52:33;97977.15;;;1.39;100.00
36454;BME280;22478;51.740;-1.314;2022-12-29T01:55:02;97984.02;;;0.70;100.00
36454;BME280;22478;51.740;-1.314;2022-12-29T01:57:33;97975.03;;;0.29;100.00
36454;BME280;22478;51.740;-1.314;2022-12-29T02:00:04;97979.66;;;0.43;100.00
36454;BME280;22478;51.740;-1.314;2022-12-29T02:02:31;97982.10;;;1.22;100.00
36454;BME280;22478;51.740;-1.314;2022-12-29T02:04:59;97980.46;;;0.74;100.00
36454;BME280;22478;51.740;-1.314;2022-12-29T02:07:29;97984.20;;;0.23;100.00
36454;BME280;22478;51.740;-1.314;2022-12-29T02:09:57;97975.93;;;-0.11;100.00
36454;BME280;22478;51.740;-1.314;2022-12-29T02:12:25;97978.38;;;0.96;100.00
36454;BME280;22478;51.740;-1.314;2022-12-29T02:14:55;97978.20;;;0.44;100.00
36454;BME280;22478;51.740;-1.314;2022-12-29T02:17:37;97975.10;;;0.90;100.00
36454;BME280;22478;51.740;-1.314;2022-12-29T02:21:45;97977.52;;;0.25;100.00
36454;BME280;22478;51.740;-1.314;2022-12-29T02:24:39;97988.24;;;0.65;100.00
36454;BME280;22478;51.740;-1.314;2022-12-29T02:27:29;98012.37;;;1.34;100.00
36454;BME280;22478;51.740;-1.314;2022-12-29T02:30:06;98014.77;;;1.22;100.00
36454;BME280;22478;51.740;-1.314;2022-12-29T02:32:39;98018.49;;;0.42;100.00
36454;BME280;22478;51.740;-1.314;2022-12-29T02:35:14;98004.73;;;0.99;100.00
36454;BME280;22478;51.740;-1.314;2022-12-29T02:37:55;98015.40;;;0.23;100.00
36454;BME280;22478;51.740;-1.314;2022-12-29T02:40:38;98027.05;;;0.39;100.00
36454;BME280;22478;51.740;-1.314;2022-12-29T02:43:14;98007.76;;;0.65;100.00
36454;BME280;22478;51.740;-1.314;2022-12-29T02:45:49;98001.91;;;1.55;100.00
36454;BME280;22478;51.740;-1.314;2022-12-29T02:48:25;98002.41;;;1.29;100.00
36454;BME280;22478;51.740;-1.314;2022-12-29T02:51:00;97996.41;;;1.12;100.00
36454;BME280;22478;51.740;-1.314;2022-12-29T02:53:30;97999.62;;;1.53;100.00
36454;BME280;22478;51.740;-1.314;2022-12-29T02:55:59;97996.09;;;1.99;100.00
36454;BME280;22478;51.740;-1.314;2022-12-29T02:58:27;98000.33;;;0.91;100.00
36454;BME280;22478;51.740;-1.314;2022-12-29T03:01:06;97993.55;;;2.12;100.00
36454;BME280;22478;51.740;-1.314;2022-12-29T03:03:45;97996.32;;;1.56;100.00
36454;BME280;22478;51.740;-1.314;2022-12-29T03:06:27;97989.29;;;1.45;100.00
36454;BME280;22478;51.740;-1.314;2022-12-29T03:09:03;97980.66;;;0.74;100.00
36454;BME280;22478;51.740;-1.314;2022-12-29T03:11:45;97984.48;;;1.62;100.00
36454;BME280;22478;51.740;-1.314;2022-12-29T03:14:22;97975.83;;;1.77;100.00
36454;BME280;22478;51.740;-1.314;2022-12-29T03:16:55;97980.73;;;0.58;100.00
36454;BME280;22478;51.740;-1.314;2022-12-29T03:19:27;97982.19;;;2.07;100.00
36454;BME280;22478;51.740;-1.314;2022-12-29T03:21:57;97969.83;;;3.05;100.00
36454;BME280;22478;51.740;-1.314;2022-12-29T03:24:28;97994.91;;;2.27;100.00
36454;BME280;22478;51.740;-1.314;2022-12-29T03:26:59;97988.36;;;1.83;100.00
36454;BME280;22478;51.740;-1.314;2022-12-29T03:29:28;97983.06;;;1.68;100.00
36454;BME280;22478;51.740;-1.314;2022-12-29T03:31:58;97996.32;;;1.72;100.00
36454;BME280;22478;51.740;-1.314;2022-12-29T03:34:26;97995.80;;;0.37;100.00
36454;BME280;22478;51.740;-1.314;2022-12-29T03:36:57;98004.60;;;1.79;100.00
36454;BME280;22478;51.740;-1.314;2022-12-29T03:39:26;98023.09;;;2.53;100.00
36454;BME280;22478;51.740;-1.314;2022-12-29T03:41:57;98020.90;;;1.29;100.00
36454;BME280;22478;51.740;-1.314;2022-12-29T03:44:32;98040.09;;;-0.18;100.00
36454;BME280;22478;51.740;-1.314;2022-12-29T03:47:00;98045.09;;;0.75;100.00
36454;BME280;22478;51.740;-1.314;2022-12-29T03:49:27;98063.32;;;1.60;100.00
36454;BME280;22478;51.740;-1.314;2022-12-29T03:51:54;98048.21;;;0.72;100.00
36454;BME280;22478;51.740;-1.314;2022-12-29T03:54:22;98062.83;;;0.75;100.00
36454;BME280;22478;51.740;-1.314;2022-12-29T03:56:49;98066.18;;;1.04;100.00
36454;BME280;22478;51.740;-1.314;2022-12-29T03:59:17;98064.25;;;1.02;100.00
36454;BME280;22478;51.740;-1.314;2022-12-29T04:01:44;98070.40;;;0.32;100.00
36454;BME280;22478;51.740;-1.314;2022-12-29T04:04:11;98081.11;;;0.08;100.00
36454;BME280;22478;51.740;-1.314;2022-12-29T04:06:37;98081.85;;;0.46;100.00
36454;BME280;22478;51.740;-1.314;2022-12-29T04:09:05;98087.87;;;1.33;100.00
36454;BME280;22478;51.740;-1.314;2022-12-29T04:11:33;98093.76;;;-0.43;100.00
36454;BME280;22478;51.740;-1.314;2022-12-29T04:14:00;98103.18;;;0.41;100.00
36454;BME280;22478;51.740;-1.314;2022-12-29T04:16:27;98110.09;;;0.66;100.00
36454;BME280;22478;51.740;-1.314;2022-12-29T04:18:54;98113.56;;;0.02;100.00
36454;BME280;22478;51.740;-1.314;2022-12-29T04:21:21;98132.78;;;-0.02;100.00
36454;BME280;22478;51.740;-1.314;2022-12-29T04:23:48;98141.18;;;-0.27;100.00
36454;BME280;22478;51.740;-1.314;2022-12-29T04:26:16;98143.99;;;1.36;100.00
36454;BME280;22478;51.740;-1.314;2022-12-29T04:28:42;98152.98;;;0.36;100.00
36454;BME280;22478;51.740;-1.314;2022-12-29T04:31:10;98164.46;;;0.21;100.00
36454;BME280;22478;51.740;-1.314;2022-12-29T04:33:37;98172.09;;;-0.29;100.00
36454;BME280;22478;51.740;-1.314;2022-12-29T04:36:04;98183.08;;;-1.16;100.00
36454;BME280;22478;51.740;-1.314;2022-12-29T04:38:31;98182.52;;;0.22;100.00
36454;BME280;22478;51.740;-1.314;2022-12-29T04:40:59;98192.04;;;-0.47;100.00
36454;BME280;22478;51.740;-1.314;2022-12-29T04:43:27;98208.75;;;0.14;100.00
36454;BME280;22478;51.740;-1.314;2022-12-29T04:45:54;98218.36;;;-0.28;100.00
36454;BME280;22478;51.740;-1.314;2022-12-29T04:48:22;98230.63;;;-0.62;100.00
36454;BME280;22478;51.740;-1.314;2022-12-29T04:50:49;98218.57;;;0.46;100.00
36454;BME280;22478;51.740;-1.314;2022-12-29T04:53:16;98219.70;;;-0.46;100.00
36454;BME280;22478;51.740;-1.314;2022-12-29T04:55:44;98233.11;;;-0.01;100.00
36454;BME280;22478;51.740;-1.314;2022-12-29T04:58:11;98250.39;;;-0.56;100.00
36454;BME280;22478;51.740;-1.314;2022-12-29T05:00:38;98245.97;;;1.16;100.00
36454;BME280;22478;51.740;-1.314;2022-12-29T05:03:05;98258.62;;;-0.66;100.00
36454;BME280;22478;51.740;-1.314;2022-12-29T05:05:31;98264.54;;;0.11;100.00
36454;BME280;22478;51.740;-1.314;2022-12-29T05:07:59;98263.38;;;0.74;100.00
36454;BME280;22478;51.740;-1.314;2022-12-29T05:10:26;98270.67;;;-0.07;100.00
36454;BME280;22478;51.740;-1.314;2022-12-29T05:12:53;98274.07;;;0.53;100.00
36454;BME280;22478;51.740;-1.314;2022-12-29T05:15:21;98275.61;;;0.64;100.00
36454;BME280;22478;51.740;-1.314;2022-12-29T05:17:48;98293.53;;;0.92;100.00
36454;BME280;22478;51.740;-1.314;2022-12-29T05:20:16;98295.98;;;0.70;100.00
36454;BME280;22478;51.740;-1.314;2022-12-29T05:22:42;98297.40;;;0.52;100.00
36454;BME280;22478;51.740;-1.314;2022-12-29T05:25:10;98316.83;;;-0.24;100.00
36454;BME280;22478;51.740;-1.314;2022-12-29T05:27:38;98323.07;;;-0.84;100.00
36454;BME280;22478;51.740;-1.314;2022-12-29T05:30:06;98332.98;;;0.56;100.00
36454;BME280;22478;51.740;-1.314;2022-12-29T05:32:34;98332.00;;;1.48;100.00
36454;BME280;22478;51.740;-1.314;2022-12-29T05:35:00;98340.66;;;-0.38;100.00
36454;BME280;22478;51.740;-1.314;2022-12-29T05:37:28;98340.94;;;1.35;100.00
36454;BME280;22478;51.740;-1.314;2022-12-29T05:39:55;98344.35;;;0.82;100.00
36454;BME280;22478;51.740;-1.314;2022-12-29T05:42:22;98353.20;;;1.18;100.00
36454;BME280;22478;51.740;-1.314;2022-12-29T05:44:49;98369.05;;;0.63;100.00
36454;BME280;22478;51.740;-1.314;2022-12-29T05:47:16;98355.62;;;0.73;100.00
36454;BME280;22478;51.740;-1.314;2022-12-29T05:49:44;98367.56;;;1.35;100.00
36454;BME280;22478;51.740;-1.314;2022-12-29T05:52:11;98370.97;;;0.99;100.00
36454;BME280;22478;51.740;-1.314;2022-12-29T05:54:39;98385.49;;;0.08;100.00
36454;BME280;22478;51.740;-1.314;2022-12-29T05:57:05;98397.58;;;-0.05;100.00
36454;BME280;22478;51.740;-1.314;2022-12-29T05:59:33;98395.55;;;0.99;100.00
36454;BME280;22478;51.740;-1.314;2022-12-29T06:02:00;98398.81;;;0.98;100.00
36454;BME280;22478;51.740;-1.314;2022-12-29T06:04:27;98410.02;;;-0.30;100.00
36454;BME280;22478;51.740;-1.314;2022-12-29T06:06:54;98411.36;;;0.82;100.00
36454;BME280;22478;51.740;-1.314;2022-12-29T06:09:21;98414.75;;;1.04;100.00
36454;BME280;22478;51.740;-1.314;2022-12-29T06:11:49;98435.47;;;-0.70;100.00
36454;BME280;22478;51.740;-1.314;2022-12-29T06:14:16;98442.25;;;-0.39;100.00
36454;BME280;22478;51.740;-1.314;2022-12-29T06:16:43;98443.45;;;1.13;100.00
36454;BME280;22478;51.740;-1.314;2022-12-29T06:19:11;98452.67;;;0.82;100.00
36454;BME280;22478;51.740;-1.314;2022-12-29T06:21:38;98455.49;;;1.10;100.00
36454;BME280;22478;51.740;-1.314;2022-12-29T06:24:06;98459.24;;;0.79;100.00
36454;BME280;22478;51.740;-1.314;2022-12-29T06:26:33;98458.03;;;0.01;100.00
36454;BME280;22478;51.740;-1.314;2022-12-29T06:29:00;98459.53;;;-0.33;100.00
36454;BME280;22478;51.740;-1.314;2022-12-29T06:31:28;98465.81;;;-0.98;100.00
36454;BME280;22478;51.740;-1.314;2022-12-29T06:33:55;98475.18;;;0.63;100.00
36454;BME280;22478;51.740;-1.314;2022-12-29T06:36:22;98473.31;;;-0.29;100.00
36454;BME280;22478;51.740;-1.314;2022-12-29T06:38:50;98476.97;;;-0.12;100.00
36454;BME280;22478;51.740;-1.314;2022-12-29T06:41:17;98484.55;;;0.96;100.00
36454;BME280;22478;51.740;-1.314;2022-12-29T06:43:44;98489.43;;;0.54;100.00
36454;BME280;22478;51.740;-1.314;2022-12-29T06:46:11;98492.29;;;0.71;100.00
36454;BME280;22478;51.740;-1.314;2022-12-29T06:48:39;98493.93;;;-0.66;100.00
36454;BME280;22478;51.740;-1.314;2022-12-29T06:51:06;98500.30;;;0.67;100.00
36454;BME280;22478;51.740;-1.314;2022-12-29T06:53:33;98501.21;;;0.73;100.00
36454;BME280;22478;51.740;-1.314;2022-12-29T06:56:00;98491.27;;;1.07;100.00
36454;BME280;22478;51.740;-1.314;2022-12-29T06:58:28;98485.82;;;2.02;100.00
36454;BME280;22478;51.740;-1.314;2022-12-29T07:00:55;98502.28;;;-0.92;100.00
36454;BME280;22478;51.740;-1.314;2022-12-29T07:03:22;98506.99;;;-0.36;100.00
36454;BME280;22478;51.740;-1.314;2022-12-29T07:05:49;98509.77;;;-0.05;100.00
36454;BME280;22478;51.740;-1.314;2022-12-29T07:08:16;98511.67;;;0.46;100.00
36454;BME280;22478;51.740;-1.314;2022-12-29T07:10:43;98512.78;;;-0.56;100.00
36454;BME280;22478;51.740;-1.314;2022-12-29T07:13:10;98512.51;;;1.26;100.00
36454;BME280;22478;51.740;-1.314;2022-12-29T07:15:38;98528.15;;;-0.06;100.00
36454;BME280;22478;51.740;-1.314;2022-12-29T07:18:05;98528.94;;;-0.68;100.00
36454;BME280;22478;51.740;-1.314;2022-12-29T07:20:32;98533.29;;;-0.88;100.00
36454;BME280;22478;51.740;-1.314;2022-12-29T07:22:59;98537.81;;;-0.41;100.00
36454;BME280;22478;51.740;-1.314;2022-12-29T07:25:26;98542.57;;;-0.72;100.00
36454;BME280;22478;51.740;-1.314;2022-12-29T07:27:53;98545.66;;;-0.39;100.00
36454;BME280;22478;51.740;-1.314;2022-12-29T07:30:20;98552.84;;;-1.31;100.00
36454;BME280;22478;51.740;-1.314;2022-12-29T07:32:47;98560.85;;;-1.59;100.00
36454;BME280;22478;51.740;-1.314;2022-12-29T07:35:15;98553.48;;;0.10;100.00
36454;BME280;22478;51.740;-1.314;2022-12-29T07:37:42;98560.52;;;-0.35;100.00
36454;BME280;22478;51.740;-1.314;2022-12-29T07:40:10;98559.72;;;0.40;100.00
36454;BME280;22478;51.740;-1.314;2022-12-29T07:42:37;98566.63;;;-0.44;100.00
36454;BME280;22478;51.740;-1.314;2022-12-29T07:45:05;98568.19;;;0.95;100.00
36454;BME280;22478;51.740;-1.314;2022-12-29T07:47:32;98571.81;;;-0.06;100.00
36454;BME280;22478;51.740;-1.314;2022-12-29T07:49:59;98573.74;;;0.54;100.00
36454;BME280;22478;51.740;-1.314;2022-12-29T07:52:27;98577.99;;;1.40;100.00
36454;BME280;22478;51.740;-1.314;2022-12-29T07:54:54;98584.07;;;0.37;100.00
36454;BME280;22478;51.740;-1.314;2022-12-29T07:57:21;98588.46;;;0.76;100.00
36454;BME280;22478;51.740;-1.314;2022-12-29T07:59:49;98592.34;;;0.81;100.00
36454;BME280;22478;51.740;-1.314;2022-12-29T08:02:16;98598.53;;;-0.10;100.00
36454;BME280;22478;51.740;-1.314;2022-12-29T08:04:43;98597.36;;;1.00;100.00
36454;BME280;22478;51.740;-1.314;2022-12-29T08:07:10;98608.93;;;-0.28;100.00
36454;BME280;22478;51.740;-1.314;2022-12-29T08:09:37;98611.37;;;0.24;100.00
36454;BME280;22478;51.740;-1.314;2022-12-29T08:12:05;98616.73;;;0.36;100.00
36454;BME280;22478;51.740;-1.314;2022-12-29T08:14:32;98618.85;;;1.65;100.00
36454;BME280;22478;51.740;-1.314;2022-12-29T08:16:59;98622.99;;;0.93;100.00
36454;BME280;22478;51.740;-1.314;2022-12-29T08:19:26;98634.66;;;-1.18;100.00
36454;BME280;22478;51.740;-1.314;2022-12-29T08:21:53;98640.99;;;-0.73;100.00
36454;BME280;22478;51.740;-1.314;2022-12-29T08:24:21;98631.25;;;-1.59;100.00
36454;BME280;22478;51.740;-1.314;2022-12-29T08:26:48;98638.01;;;-0.47;100.00
36454;BME280;22478;51.740;-1.314;2022-12-29T08:29:15;98638.60;;;-0.76;100.00
36454;BME280;22478;51.740;-1.314;2022-12-29T08:31:43;98633.93;;;-1.54;100.00
36454;BME280;22478;51.740;-1.314;2022-12-29T08:34:10;98630.77;;;-0.92;100.00
36454;BME280;22478;51.740;-1.314;2022-12-29T08:36:38;98637.43;;;-0.60;100.00
36454;BME280;22478;51.740;-1.314;2022-12-29T08:39:05;98647.39;;;-0.14;100.00
36454;BME280;22478;51.740;-1.314;2022-12-29T08:41:33;98649.95;;;-0.09;100.00
36454;BME280;22478;51.740;-1.314;2022-12-29T08:44:00;98660.68;;;-1.55;100.00
36454;BME280;22478;51.740;-1.314;2022-12-29T08:46:27;98661.93;;;-0.17;100.00
36454;BME280;22478;51.740;-1.314;2022-12-29T08:48:54;98664.55;;;-0.54;100.00
36454;BME280;22478;51.740;-1.314;2022-12-29T08:51:21;98668.98;;;-0.17;100.00
36454;BME280;22478;51.740;-1.314;2022-12-29T08:53:48;98679.05;;;-1.31;100.00
36454;BME280;22478;51.740;-1.314;2022-12-29T08:56:15;98680.68;;;-0.40;100.00
36454;BME280;22478;51.740;-1.314;2022-12-29T08:58:43;98691.70;;;-1.80;100.00
36454;BME280;22478;51.740;-1.314;2022-12-29T09:01:10;98688.73;;;0.55;100.00
36454;BME280;22478;51.740;-1.314;2022-12-29T09:03:37;98690.21;;;0.87;100.00
36454;BME280;22478;51.740;-1.314;2022-12-29T09:06:05;98687.22;;;0.54;100.00
36454;BME280;22478;51.740;-1.314;2022-12-29T09:08:32;98690.19;;;1.53;100.00
36454;BME280;22478;51.740;-1.314;2022-12-29T09:11:06;98706.87;;;0.75;100.00
36454;BME280;22478;51.740;-1.314;2022-12-29T09:13:33;98706.45;;;1.34;100.00
36454;BME280;22478;51.740;-1.314;2022-12-29T09:16:01;98719.47;;;-0.96;100.00
36454;BME280;22478;51.740;-1.314;2022-12-29T09:18:28;98729.99;;;0.52;100.00
36454;BME280;22478;51.740;-1.314;2022-12-29T09:20:57;98734.39;;;-0.02;100.00
36454;BME280;22478;51.740;-1.314;2022-12-29T09:23:25;98732.27;;;-0.75;100.00
36454;BME280;22478;51.740;-1.314;2022-12-29T09:25:53;98725.13;;;-1.75;100.00
36454;BME280;22478;51.740;-1.314;2022-12-29T09:28:20;98732.74;;;-1.08;100.00
36454;BME280;22478;51.740;-1.314;2022-12-29T09:30:48;98723.51;;;1.39;100.00
36454;BME280;22478;51.740;-1.314;2022-12-29T09:33:16;98739.13;;;0.15;100.00
36454;BME280;22478;51.740;-1.314;2022-12-29T09:35:45;98747.78;;;-0.42;100.00
36454;BME280;22478;51.740;-1.314;2022-12-29T09:38:17;98750.24;;;0.28;100.00
36454;BME280;22478;51.740;-1.314;2022-12-29T09:40:46;98752.35;;;0.31;100.00
36454;BME280;22478;51.740;-1.314;2022-12-29T09:43:27;98757.87;;;-0.53;100.00
36454;BME280;22478;51.740;-1.314;2022-12-29T09:46:07;98756.94;;;-0.13;100.00
36454;BME280;22478;51.740;-1.314;2022-12-29T09:48:45;98762.24;;;0.49;100.00
36454;BME280;22478;51.740;-1.314;2022-12-29T09:51:17;98763.67;;;0.35;100.00
36454;BME280;22478;51.740;-1.314;2022-12-29T09:53:51;98754.99;;;1.47;100.00
36454;BME280;22478;51.740;-1.314;2022-12-29T09:56:22;98755.27;;;-0.32;100.00
36454;BME280;22478;51.740;-1.314;2022-12-29T09:58:55;98758.38;;;-0.00;100.00
36454;BME280;22478;51.740;-1.314;2022-12-29T10:01:30;98757.31;;;0.71;100.00
36454;BME280;22478;51.740;-1.314;2022-12-29T10:03:59;98764.50;;;1.70;100.00
36454;BME280;22478;51.740;-1.314;2022-12-29T10:06:32;98765.86;;;-1.06;100.00
36454;BME280;22478;51.740;-1.314;2022-12-29T10:09:07;98776.90;;;-0.35;100.00
36454;BME280;22478;51.740;-1.314;2022-12-29T10:11:50;98785.80;;;-0.48;100.00
36454;BME280;22478;51.740;-1.314;2022-12-29T10:14:33;98791.19;;;0.99;100.00
36454;BME280;22478;51.740;-1.314;2022-12-29T10:17:10;98798.67;;;0.49;100.00
36454;BME280;22478;51.740;-1.314;2022-12-29T10:19:53;98804.32;;;0.11;100.00
36454;BME280;22478;51.740;-1.314;2022-12-29T10:22:33;98805.20;;;-0.25;100.00
36454;BME280;22478;51.740;-1.314;2022-12-29T10:25:12;98811.84;;;-0.03;100.00
36454;BME280;22478;51.740;-1.314;2022-12-29T10:27:42;98811.61;;;0.19;100.00
36454;BME280;22478;51.740;-1.314;2022-12-29T10:30:12;98815.30;;;0.94;100.00
36454;BME280;22478;51.740;-1.314;2022-12-29T10:32:43;98812.63;;;0.77;100.00
36454;BME280;22478;51.740;-1.314;2022-12-29T10:35:16;98817.92;;;0.02;100.00
36454;BME280;22478;51.740;-1.314;2022-12-29T10:37:47;98816.36;;;0.91;100.00
36454;BME280;22478;51.740;-1.314;2022-12-29T10:40:22;98812.77;;;1.43;100.00
36454;BME280;22478;51.740;-1.314;2022-12-29T10:42:53;98813.36;;;0.94;100.00
36454;BME280;22478;51.740;-1.314;2022-12-29T10:45:23;98818.33;;;0.81;100.00
36454;BME280;22478;51.740;-1.314;2022-12-29T10:47:55;98819.39;;;1.98;100.00
36454;BME280;22478;51.740;-1.314;2022-12-29T10:50:25;98822.32;;;3.00;100.00
36454;BME280;22478;51.740;-1.314;2022-12-29T10:52:54;98826.45;;;0.81;100.00
36454;BME280;22478;51.740;-1.314;2022-12-29T10:55:27;98834.07;;;0.68;100.00
36454;BME280;22478;51.740;-1.314;2022-12-29T10:57:56;98837.39;;;2.02;100.00
36454;BME280;22478;51.740;-1.314;2022-12-29T11:00:26;98845.83;;;0.35;100.00
36454;BME280;22478;51.740;-1.314;2022-12-29T11:03:07;98847.83;;;1.18;100.00
36454;BME280;22478;51.740;-1.314;2022-12-29T11:05:41;98856.02;;;0.44;100.00
36454;BME280;22478;51.740;-1.314;2022-12-29T11:08:15;98853.09;;;0.16;100.00
36454;BME280;22478;51.740;-1.314;2022-12-29T11:10:46;98846.40;;;0.63;100.00
36454;BME280;22478;51.740;-1.314;2022-12-29T11:13:16;98838.10;;;0.59;100.00
36454;BME280;22478;51.740;-1.314;2022-12-29T11:15:44;98840.07;;;0.85;100.00
36454;BME280;22478;51.740;-1.314;2022-12-29T11:18:22;98840.90;;;2.46;100.00
36454;BME280;22478;51.740;-1.314;2022-12-29T11:20:52;98848.05;;;1.23;100.00
36454;BME280;22478;51.740;-1.314;2022-12-29T11:23:25;98859.37;;;0.62;100.00
36454;BME280;22478;51.740;-1.314;2022-12-29T11:26:14;98855.87;;;0.70;100.00
36454;BME280;22478;51.740;-1.314;2022-12-29T11:28:44;98868.09;;;0.46;100.00
36454;BME280;22478;51.740;-1.314;2022-12-29T11:31:16;98858.25;;;1.96;100.00
36454;BME280;22478;51.740;-1.314;2022-12-29T11:33:43;98863.96;;;1.87;100.00
36454;BME280;22478;51.740;-1.314;2022-12-29T11:36:15;98866.77;;;1.08;100.00
36454;BME280;22478;51.740;-1.314;2022-12-29T11:38:48;98874.32;;;2.54;100.00
36454;BME280;22478;51.740;-1.314;2022-12-29T11:41:21;98879.34;;;1.33;100.00
36454;BME280;22478;51.740;-1.314;2022-12-29T11:43:49;98878.40;;;3.08;100.00
36454;BME280;22478;51.740;-1.314;2022-12-29T11:46:20;98884.98;;;3.11;100.00
36454;BME280;22478;51.740;-1.314;2022-12-29T11:48:49;98881.19;;;1.04;100.00
36454;BME280;22478;51.740;-1.314;2022-12-29T11:51:22;98882.93;;;2.57;100.00
36454;BME280;22478;51.740;-1.314;2022-12-29T11:53:52;98876.75;;;4.64;100.00
36454;BME280;22478;51.740;-1.314;2022-12-29T11:56:37;98874.48;;;4.55;100.00
36454;BME280;22478;51.740;-1.314;2022-12-29T11:59:41;98880.69;;;2.74;100.00
36454;BME280;22478;51.740;-1.314;2022-12-29T12:02:32;98874.89;;;6.21;100.00
36454;BME280;22478;51.740;-1.314;2022-12-29T12:05:08;98880.70;;;2.74;100.00
36454;BME280;22478;51.740;-1.314;2022-12-29T12:07:40;98888.01;;;4.23;100.00
36454;BME280;22478;51.740;-1.314;2022-12-29T12:10:16;98891.86;;;2.90;100.00
36454;BME280;22478;51.740;-1.314;2022-12-29T12:12:50;98895.00;;;1.11;100.00
36454;BME280;22478;51.740;-1.314;2022-12-29T12:15:22;98898.00;;;0.74;100.00
36454;BME280;22478;51.740;-1.314;2022-12-29T12:17:54;98903.79;;;1.32;100.00
36454;BME280;22478;51.740;-1.314;2022-12-29T12:20:28;98912.24;;;1.36;100.00
36454;BME280;22478;51.740;-1.314;2022-12-29T12:23:10;98903.35;;;1.01;100.00
36454;BME280;22478;51.740;-1.314;2022-12-29T12:25:43;98902.08;;;0.65;100.00
36454;BME280;22478;51.740;-1.314;2022-12-29T12:28:19;98903.44;;;2.84;100.00
36454;BME280;22478;51.740;-1.314;2022-12-29T12:30:49;98897.55;;;1.87;100.00
36454;BME280;22478;51.740;-1.314;2022-12-29T12:33:24;98895.02;;;2.96;100.00
36454;BME280;22478;51.740;-1.314;2022-12-29T12:36:10;98900.29;;;3.72;100.00
36454;BME280;22478;51.740;-1.314;2022-12-29T12:38:46;98906.34;;;3.98;100.00
36454;BME280;22478;51.740;-1.314;2022-12-29T12:41:24;98918.44;;;1.53;100.00
36454;BME280;22478;51.740;-1.314;2022-12-29T12:44:01;98906.88;;;3.45;100.00
36454;BME280;22478;51.740;-1.314;2022-12-29T12:46:48;98910.91;;;1.75;100.00
36454;BME280;22478;51.740;-1.314;2022-12-29T12:49:56;98915.45;;;3.15;100.00
36454;BME280;22478;51.740;-1.314;2022-12-29T12:52:37;98911.78;;;1.32;100.00
36454;BME280;22478;51.740;-1.314;2022-12-29T12:55:24;98926.54;;;-0.72;100.00
36454;BME280;22478;51.740;-1.314;2022-12-29T12:58:03;98917.64;;;0.57;100.00
36454;BME280;22478;51.740;-1.314;2022-12-29T13:00:40;98918.81;;;1.37;100.00
36454;BME280;22478;51.740;-1.314;2022-12-29T13:03:17;98918.40;;;0.32;100.00
36454;BME280;22478;51.740;-1.314;2022-12-29T13:06:09;98913.60;;;-0.17;100.00